Time,TemperatureF,DewpointF,PressureIn,WindDirection,WindDirectionDegrees,WindSpeedMPH,WindSpeedGustMPH,Humidity,HourlyPrecipIn,Conditions,Clouds,dailyrainin,SoftwareType,DateUTC
2013-07-24 00:09:00,63.8,59.0,29.96,NE,38,0.0,0.0,84,0.00,,,0.00,weatherlink.com 1.10,2013-07-24 05:09:00,
2013-07-24 00:24:00,63.4,59.0,29.95,NE,38,0.0,0.0,86,0.00,,,0.00,weatherlink.com 1.10,2013-07-24 05:24:00,
2013-07-24 00:39:00,62.8,58.0,29.96,NE,38,0.0,0.0,85,0.00,,,0.00,weatherlink.com 1.10,2013-07-24 05:39:00,
2013-07-24 00:55:00,62.3,58.0,29.96,NE,38,0.0,0.0,86,0.00,,,0.00,weatherlink.com 1.10,2013-07-24 05:55:00,
2013-07-24 01:10:00,62.0,58.0,29.95,NE,38,0.0,1.0,87,0.00,,,0.00,weatherlink.com 1.10,2013-07-24 06:10:00,
2013-07-24 01:25:00,62.0,58.0,29.95,NE,38,0.0,0.0,86,0.00,,,0.00,weatherlink.com 1.10,2013-07-24 06:25:00,
2013-07-24 01:40:00,61.2,58.0,29.96,NE,38,0.0,0.0,88,0.00,,,0.00,weatherlink.com 1.10,2013-07-24 06:40:00,
2013-07-24 01:55:00,60.9,58.0,29.97,NE,38,0.0,0.0,89,0.00,,,0.00,weatherlink.com 1.10,2013-07-24 06:55:00,
2013-07-24 02:10:00,60.5,58.0,29.97,NE,38,0.0,0.0,91,0.00,,,0.00,weatherlink.com 1.10,2013-07-24 07:10:00,
2013-07-24 02:25:00,60.3,58.0,29.98,NE,38,0.0,0.0,91,0.00,,,0.00,weatherlink.com 1.10,2013-07-24 07:25:00,
2013-07-24 02:40:00,60.1,58.0,29.97,NE,38,0.0,0.0,92,0.00,,,0.00,weatherlink.com 1.10,2013-07-24 07:40:00,
2013-07-24 02:55:00,59.8,58.0,29.97,NE,38,0.0,2.0,93,0.00,,,0.00,weatherlink.com 1.10,2013-07-24 07:55:00,
2013-07-24 03:10:00,60.1,58.0,29.96,NE,38,0.0,0.0,93,0.00,,,0.00,weatherlink.com 1.10,2013-07-24 08:10:00,
2013-07-24 03:25:00,59.4,57.0,29.97,NE,38,0.0,0.0,93,0.00,,,0.00,weatherlink.com 1.10,2013-07-24 08:25:00,
2013-07-24 03:40:00,59.3,58.0,29.97,NE,38,0.0,0.0,94,0.00,,,0.00,weatherlink.com 1.10,2013-07-24 08:40:00,
2013-07-24 03:55:00,59.1,57.0,29.99,NE,38,0.0,1.0,94,0.00,,,0.00,weatherlink.com 1.10,2013-07-24 08:55:00,
2013-07-24 04:10:00,58.9,57.0,29.98,NE,38,0.0,0.0,94,0.00,,,0.00,weatherlink.com 1.10,2013-07-24 09:10:00,
2013-07-24 04:25:00,58.7,57.0,29.98,NE,38,0.0,0.0,94,0.00,,,0.00,weatherlink.com 1.10,2013-07-24 09:25:00,
2013-07-24 04:40:00,58.5,57.0,29.99,NE,38,0.0,0.0,94,0.00,,,0.00,weatherlink.com 1.10,2013-07-24 09:40:00,
2013-07-24 04:55:00,58.3,57.0,29.99,NE,38,0.0,0.0,94,0.00,,,0.00,weatherlink.com 1.10,2013-07-24 09:55:00,
2013-07-24 05:10:00,57.9,56.0,29.99,NE,38,0.0,0.0,94,0.00,,,0.00,weatherlink.com 1.10,2013-07-24 10:10:00,
2013-07-24 05:25:00,57.7,56.0,30.00,NE,38,0.0,0.0,95,0.00,,,0.00,weatherlink.com 1.10,2013-07-24 10:25:00,
2013-07-24 05:40:00,57.7,56.0,30.01,NE,38,0.0,1.0,95,0.00,,,0.00,weatherlink.com 1.10,2013-07-24 10:40:00,
2013-07-24 05:55:00,57.7,56.0,30.02,NE,38,0.0,0.0,95,0.00,,,0.00,weatherlink.com 1.10,2013-07-24 10:55:00,
2013-07-24 06:10:00,57.5,56.0,30.02,NE,38,0.0,1.0,95,0.00,,,0.00,weatherlink.com 1.10,2013-07-24 11:10:00,
2013-07-24 06:25:00,57.3,56.0,30.01,NE,38,0.0,0.0,95,0.00,,,0.00,weatherlink.com 1.10,2013-07-24 11:25:00,
2013-07-24 06:40:00,57.2,56.0,30.00,NE,38,0.0,0.0,95,0.00,,,0.00,weatherlink.com 1.10,2013-07-24 11:40:00,
2013-07-24 06:55:00,57.9,57.0,30.01,NE,38,0.0,0.0,95,0.00,,,0.00,weatherlink.com 1.10,2013-07-24 11:55:00,
2013-07-24 07:10:00,58.8,58.0,30.01,NE,38,0.0,0.0,96,0.00,,,0.00,weatherlink.com 1.10,2013-07-24 12:10:00,
2013-07-24 07:25:00,60.1,59.0,30.02,NE,38,0.0,0.0,96,0.00,,,0.00,weatherlink.com 1.10,2013-07-24 12:25:00,
2013-07-24 07:40:00,60.8,59.0,30.02,NE,38,0.0,0.0,95,0.00,,,0.00,weatherlink.com 1.10,2013-07-24 12:40:00,
2013-07-24 07:55:00,62.5,61.0,30.03,NE,38,0.0,0.0,95,0.00,,,0.00,weatherlink.com 1.10,2013-07-24 12:55:00,
2013-07-24 08:10:00,64.2,62.0,30.03,NE,38,0.0,0.0,93,0.00,,,0.00,weatherlink.com 1.10,2013-07-24 13:10:00,
2013-07-24 08:25:00,65.5,62.0,30.04,NE,38,0.0,0.0,88,0.00,,,0.00,weatherlink.com 1.10,2013-07-24 13:25:00,
2013-07-24 08:40:00,67.7,62.0,30.04,NE,38,0.0,0.0,81,0.00,,,0.00,weatherlink.com 1.10,2013-07-24 13:40:00,
2013-07-24 08:55:00,67.8,62.0,30.03,NE,38,0.0,0.0,81,0.00,,,0.00,weatherlink.com 1.10,2013-07-24 13:55:00,
2013-07-24 09:10:00,69.8,62.0,30.04,NE,38,0.0,0.0,77,0.00,,,0.00,weatherlink.com 1.10,2013-07-24 14:10:00,
2013-07-24 09:25:00,70.8,63.0,30.04,NE,38,0.0,0.0,76,0.00,,,0.00,weatherlink.com 1.10,2013-07-24 14:25:00,
2013-07-24 09:41:00,72.0,62.0,30.03,North,355,0.0,4.0,71,0.00,,,0.00,weatherlink.com 1.10,2013-07-24 14:41:00,
2013-07-24 09:56:00,71.0,62.0,30.03,North,355,0.0,3.0,74,0.00,,,0.00,weatherlink.com 1.10,2013-07-24 14:56:00,
2013-07-24 10:11:00,72.4,63.0,30.03,North,351,2.0,6.0,72,0.00,,,0.00,weatherlink.com 1.10,2013-07-24 15:11:00,
2013-07-24 10:26:00,72.8,62.0,30.03,NNW,347,2.0,6.0,68,0.00,,,0.00,weatherlink.com 1.10,2013-07-24 15:26:00,
2013-07-24 10:41:00,73.0,61.0,30.03,NNW,344,4.0,7.0,67,0.00,,,0.00,weatherlink.com 1.10,2013-07-24 15:41:00,
2013-07-24 10:56:00,74.4,64.0,30.03,NNW,343,2.0,5.0,70,0.00,,,0.00,weatherlink.com 1.10,2013-07-24 15:56:00,
2013-07-24 11:11:00,74.8,61.0,30.02,NW,322,0.0,7.0,63,0.00,,,0.00,weatherlink.com 1.10,2013-07-24 16:11:00,
2013-07-24 11:26:00,74.6,62.0,30.02,NW,305,6.0,6.0,64,0.00,,,0.00,weatherlink.com 1.10,2013-07-24 16:26:00,
2013-07-24 11:41:00,75.1,62.0,30.03,NW,321,0.0,7.0,64,0.00,,,0.00,weatherlink.com 1.10,2013-07-24 16:41:00,
2013-07-24 11:56:00,74.8,60.0,30.03,NW,309,2.0,9.0,61,0.00,,,0.00,weatherlink.com 1.10,2013-07-24 16:56:00,
2013-07-24 12:11:00,76.1,62.0,30.03,NW,315,3.0,7.0,61,0.00,,,0.00,weatherlink.com 1.10,2013-07-24 17:11:00,
2013-07-24 12:41:00,76.4,63.0,30.03,NW,317,0.0,9.0,63,0.00,,,0.00,weatherlink.com 1.10,2013-07-24 17:41:00,
2013-07-24 13:26:00,78.6,62.0,30.02,WNW,293,8.0,11.0,56,0.00,,,0.00,weatherlink.com 1.10,2013-07-24 18:26:00,
2013-07-24 13:41:00,76.4,62.0,30.02,WNW,298,0.0,6.0,61,0.00,,,0.00,weatherlink.com 1.10,2013-07-24 18:41:00,
2013-07-24 13:56:00,76.8,63.0,30.02,NW,306,0.0,7.0,62,0.00,,,0.00,weatherlink.com 1.10,2013-07-24 18:56:00,
2013-07-24 14:11:00,76.7,60.0,30.01,NW,307,0.0,5.0,57,0.00,,,0.00,weatherlink.com 1.10,2013-07-24 19:11:00,
2013-07-24 14:26:00,76.6,61.0,30.01,NW,309,0.0,7.0,59,0.00,,,0.00,weatherlink.com 1.10,2013-07-24 19:26:00,
2013-07-24 14:41:00,75.9,62.0,30.02,WNW,298,0.0,7.0,62,0.00,,,0.00,weatherlink.com 1.10,2013-07-24 19:41:00,
2013-07-24 14:56:00,76.7,63.0,30.01,WNW,298,0.0,1.0,63,0.00,,,0.00,weatherlink.com 1.10,2013-07-24 19:56:00,
2013-07-24 15:11:00,78.0,62.0,30.00,WNW,300,0.0,8.0,59,0.00,,,0.00,weatherlink.com 1.10,2013-07-24 20:11:00,
2013-07-24 15:26:00,78.3,62.0,30.00,WNW,300,0.0,5.0,57,0.00,,,0.00,weatherlink.com 1.10,2013-07-24 20:26:00,
2013-07-24 15:41:00,75.8,62.0,30.00,WNW,301,0.0,5.0,62,0.00,,,0.00,weatherlink.com 1.10,2013-07-24 20:41:00,
2013-07-24 15:56:00,77.5,62.0,30.00,WNW,301,0.0,0.0,59,0.00,,,0.00,weatherlink.com 1.10,2013-07-24 20:56:00,
2013-07-24 16:11:00,78.9,63.0,30.00,North,355,0.0,7.0,58,0.00,,,0.00,weatherlink.com 1.10,2013-07-24 21:11:00,
2013-07-24 16:26:00,77.6,61.0,30.00,North,355,0.0,9.0,57,0.00,,,0.00,weatherlink.com 1.10,2013-07-24 21:26:00,
2013-07-24 16:41:00,76.8,61.0,29.99,North,355,0.0,0.0,59,0.00,,,0.00,weatherlink.com 1.10,2013-07-24 21:41:00,
2013-07-24 16:56:00,77.8,60.0,29.99,North,360,0.0,3.0,54,0.00,,,0.00,weatherlink.com 1.10,2013-07-24 21:56:00,
2013-07-24 17:11:00,77.4,61.0,29.99,North,360,0.0,0.0,57,0.00,,,0.00,weatherlink.com 1.10,2013-07-24 22:11:00,
2013-07-24 17:26:00,77.9,60.0,29.99,North,360,0.0,3.0,55,0.00,,,0.00,weatherlink.com 1.10,2013-07-24 22:26:00,
2013-07-24 17:56:00,78.4,61.0,29.98,North,360,0.0,0.0,56,0.00,,,0.00,weatherlink.com 1.10,2013-07-24 22:56:00,
2013-07-24 18:11:00,79.1,60.0,29.98,North,360,0.0,1.0,53,0.00,,,0.00,weatherlink.com 1.10,2013-07-24 23:11:00,
2013-07-24 18:41:00,77.7,62.0,29.97,North,360,0.0,0.0,58,0.00,,,0.00,weatherlink.com 1.10,2013-07-24 23:41:00,
2013-07-24 18:56:00,77.8,61.0,29.97,North,360,0.0,3.0,57,0.00,,,0.00,weatherlink.com 1.10,2013-07-24 23:56:00,
2013-07-24 19:11:00,77.0,61.0,29.98,North,360,0.0,4.0,59,0.00,,,0.00,weatherlink.com 1.10,2013-07-25 00:11:00,
2013-07-24 19:26:00,76.5,62.0,29.97,North,360,0.0,0.0,61,0.00,,,0.00,weatherlink.com 1.10,2013-07-25 00:26:00,
2013-07-24 19:56:00,74.3,62.0,29.98,NNE,13,0.0,5.0,66,0.00,,,0.00,weatherlink.com 1.10,2013-07-25 00:56:00,
2013-07-24 20:11:00,72.6,62.0,29.99,NNE,13,0.0,0.0,69,0.00,,,0.00,weatherlink.com 1.10,2013-07-25 01:11:00,
2013-07-24 20:26:00,71.5,62.0,29.99,NNE,13,0.0,1.0,72,0.00,,,0.00,weatherlink.com 1.10,2013-07-25 01:26:00,
2013-07-24 20:41:00,70.8,62.0,29.99,NNE,13,0.0,3.0,74,0.00,,,0.00,weatherlink.com 1.10,2013-07-25 01:41:00,
2013-07-24 21:11:00,68.7,61.0,29.99,NNE,13,0.0,0.0,77,0.00,,,0.00,weatherlink.com 1.10,2013-07-25 02:11:00,
2013-07-24 21:26:00,68.2,61.0,29.99,NNE,13,0.0,0.0,78,0.00,,,0.00,weatherlink.com 1.10,2013-07-25 02:26:00,
2013-07-24 21:41:00,67.7,61.0,29.99,NNE,13,0.0,1.0,80,0.00,,,0.00,weatherlink.com 1.10,2013-07-25 02:41:00,
2013-07-24 21:56:00,66.9,61.0,29.99,NNE,13,0.0,0.0,81,0.00,,,0.00,weatherlink.com 1.10,2013-07-25 02:56:00,
2013-07-24 22:11:00,66.5,61.0,29.99,NNE,13,0.0,1.0,82,0.00,,,0.00,weatherlink.com 1.10,2013-07-25 03:11:00,
2013-07-24 22:26:00,66.3,60.0,29.99,NNE,13,0.0,0.0,81,0.00,,,0.00,weatherlink.com 1.10,2013-07-25 03:26:00,
2013-07-24 22:41:00,65.7,60.0,29.99,NNE,13,0.0,0.0,83,0.00,,,0.00,weatherlink.com 1.10,2013-07-25 03:41:00,
2013-07-24 22:56:00,65.4,61.0,29.99,NNE,13,0.0,0.0,84,0.00,,,0.00,weatherlink.com 1.10,2013-07-25 03:56:00,
2013-07-24 23:11:00,65.0,60.0,29.99,NNE,13,0.0,0.0,85,0.00,,,0.00,weatherlink.com 1.10,2013-07-25 04:11:00,
2013-07-24 23:26:00,64.6,60.0,30.00,NNE,13,0.0,0.0,86,0.00,,,0.00,weatherlink.com 1.10,2013-07-25 04:26:00,
2013-07-24 23:41:00,64.5,60.0,30.00,NNE,13,0.0,1.0,86,0.00,,,0.00,weatherlink.com 1.10,2013-07-25 04:41:00,
2013-07-24 23:56:00,64.1,60.0,30.01,NNE,13,0.0,0.0,87,0.00,,,0.00,weatherlink.com 1.10,2013-07-25 04:56:00,